Midland International Airport
KMAF : now visible

Airfield :











YOU CAN JOIN US ON...

 
LOGIN :

Register | Disclaimer

   EN    FR    IT 

 









Legend :    VFR   Marginal VFR   IFR   Intensive IFR   Very Intensive IFR
Visi :
Ceiling :
>= 8 km
>= 3000ft
5 to 8 km
1000 to 3000 ft
1500m to 5 km
500 to 1000 ft
800 to 1500m
200 to 500 ft
< 800m
< 200 ft
Symbols :   Thunderstorms  Fog  Heavy snow  Heavy precipitations  Wind > 20 kt







- Airport Elevation : 2871 ft
- IATA code : MAF


KMAF - Midland International

CURRENT METAR :
  • 191953Z 26007KT 10SM CLR 21/01 A3020 RMK AO2 SLP195 T02110006

EXPIRED METARs :
  • 191853Z 04006KT 10SM CLR 21/01 A3022 RMK AO2 SLP203 T02060011
  • 191753Z 03005KT 10SM CLR 19/01 A3026 RMK AO2 SLP216 T01940006 10194 20067 58006

TAF KMAF
Valid from the 19 at 18:00 until the 20 at 18:00 UTC


191727Z 1918/2018 01008KT P6SM SKC
FM192200 18008KT P6SM SKC
KZFW FIR / North America



MET'MAP, your aeronautical weather chart ! - Copyright ORBIFLY December 2007 - Disclaimer

ORBIFLY MET'MAP TEAM :

Programming & Development : Alexandra Zaïnal
Concept & Development : Baudouin d'Aumeries
Co-Development & Prog : Marc-Olivier Méhu
Technical & hardware support : Manuel Goepfert

Contact : metmap@orbifly.com




SOURCES & CREDITS :

   NOAA       Earth
Advisory